Time;durP1;ratioP1;P1;durP2;ratioP2;P2;SDS_P1;SDS_P2;PMS_P1;PMS_P2;Temp;Humidity;BMP_temperature;BMP_pressure;BME280_temperature;BME280_humidity;BME280_pressure;Samples;Min_cycle;Max_cycle;Signal;HPM_P1;HPM_P2
2021/12/04 00:01:11;;;;;;;7.95;4.72;;;2.30;99.90;;;;;;5029378;28;20044;-71
2021/12/04 00:04:21;;;;;;;13.82;5.95;;;2.20;99.90;;;;;;5031994;28;20041;-71
2021/12/04 00:07:27;;;;;;;16.27;6.43;;;2.20;99.90;;;;;;5031897;28;20036;-71
2021/12/04 00:10:32;;;;;;;16.77;6.50;;;2.20;99.90;;;;;;5031235;28;20060;-71
2021/12/04 00:13:35;;;;;;;11.43;6.75;;;2.20;99.90;;;;;;5027727;28;20407;-71
2021/12/04 00:16:39;;;;;;;5.90;3.00;;;2.20;99.90;;;;;;5031430;28;20060;-70
2021/12/04 00:19:43;;;;;;;6.97;4.20;;;2.30;99.90;;;;;;5030610;28;20049;-71
2021/12/04 00:22:47;;;;;;;5.95;2.50;;;2.30;99.90;;;;;;5031501;28;20025;-71
2021/12/04 00:25:51;;;;;;;3.92;2.10;;;2.40;99.90;;;;;;5029772;28;20041;-71
2021/12/04 00:28:55;;;;;;;2.80;1.90;;;2.40;99.90;;;;;;5028751;28;20038;-71
2021/12/04 00:32:09;;;;;;;7.07;4.18;;;2.40;99.90;;;;;;5030580;28;20041;-71
2021/12/04 00:35:22;;;;;;;6.03;2.40;;;2.50;99.90;;;;;;5030956;28;20033;-71
2021/12/04 00:51:58;;;;;;;6.45;3.67;;;2.50;99.90;;;;;;5029621;28;20038;-70
2021/12/04 00:55:05;;;;;;;7.22;4.65;;;2.50;99.90;;;;;;5030609;28;20037;-71
2021/12/04 00:58:09;;;;;;;9.77;4.82;;;2.40;99.90;;;;;;5023316;28;20033;-70
2021/12/04 01:01:19;;;;;;;6.03;4.07;;;2.30;99.90;;;;;;5030957;28;20033;-71
2021/12/04 01:04:23;;;;;;;6.65;3.50;;;2.20;99.90;;;;;;5024661;28;20029;-71
2021/12/04 01:07:27;;;;;;;5.25;3.08;;;2.20;99.90;;;;;;5029533;28;20354;-71
2021/12/04 01:10:31;;;;;;;4.50;2.85;;;2.10;99.90;;;;;;5027084;28;20053;-70
2021/12/04 01:13:35;;;;;;;4.30;2.92;;;2.10;99.90;;;;;;5025261;28;20049;-71
2021/12/04 01:16:39;;;;;;;6.00;3.50;;;2.10;99.90;;;;;;5029790;28;20046;-71
2021/12/04 01:19:44;;;;;;;46.60;26.73;;;2.10;99.90;;;;;;5031809;28;20041;-70
2021/12/04 01:22:48;;;;;;;19.42;11.73;;;2.10;99.90;;;;;;5034355;28;20491;-71
2021/12/04 01:25:53;;;;;;;5.10;3.20;;;2.10;99.90;;;;;;5034588;28;20052;-71
2021/12/04 01:28:57;;;;;;;5.18;3.15;;;2.10;99.90;;;;;;5034612;28;20029;-71
2021/12/04 01:32:02;;;;;;;4.28;2.63;;;2.10;99.90;;;;;;5033655;28;20060;-71
2021/12/04 01:35:06;;;;;;;6.22;3.63;;;2.20;99.90;;;;;;5033885;28;20038;-71
2021/12/04 01:38:11;;;;;;;11.02;5.75;;;2.30;99.90;;;;;;5029819;28;20022;-71
2021/12/04 01:41:15;;;;;;;11.00;4.70;;;2.40;99.90;;;;;;5034573;28;20045;-71
2021/12/04 01:44:20;;;;;;;7.03;3.90;;;2.30;99.90;;;;;;5034304;28;20048;-71
2021/12/04 01:47:24;;;;;;;6.30;3.78;;;2.30;99.90;;;;;;5029125;28;20029;-71
2021/12/04 01:50:29;;;;;;;8.90;3.70;;;2.40;99.90;;;;;;5033135;28;20029;-70
2021/12/04 01:53:33;;;;;;;9.70;4.70;;;2.50;99.90;;;;;;5033959;28;20041;-70
2021/12/04 01:56:37;;;;;;;9.00;5.00;;;2.40;99.90;;;;;;5034765;28;20041;-70
2021/12/04 01:59:42;;;;;;;8.55;4.47;;;1.80;99.90;;;;;;5030669;28;20037;-70
2021/12/04 02:02:46;;;;;;;10.02;6.72;;;1.70;99.90;;;;;;5031146;28;20041;-71
2021/12/04 02:05:51;;;;;;;11.70;6.63;;;1.60;99.90;;;;;;5034122;28;20116;-71
2021/12/04 02:08:55;;;;;;;10.98;6.35;;;1.60;99.90;;;;;;5034111;28;20754;-71
2021/12/04 02:11:59;;;;;;;10.15;6.10;;;1.50;99.90;;;;;;5033805;28;20361;-71
2021/12/04 02:15:05;;;;;;;10.07;6.13;;;1.50;99.90;;;;;;5033390;28;20052;-71
2021/12/04 02:18:09;;;;;;;11.43;7.35;;;1.40;99.90;;;;;;5033938;28;20483;-71
2021/12/04 02:21:15;;;;;;;13.00;8.27;;;1.40;99.90;;;;;;5031834;28;20052;-71
2021/12/04 02:24:19;;;;;;;13.73;7.75;;;1.50;99.90;;;;;;5029193;28;20056;-70
2021/12/04 02:27:24;;;;;;;14.00;7.20;;;1.50;99.90;;;;;;5027919;28;20041;-71
2021/12/04 02:30:30;;;;;;;12.60;6.68;;;1.50;99.90;;;;;;5030265;28;20491;-71
2021/12/04 02:33:34;;;;;;;10.90;6.80;;;1.50;99.90;;;;;;5032813;28;20049;-71
2021/12/04 02:36:38;;;;;;;13.25;7.45;;;1.40;99.90;;;;;;5031026;28;20060;-71
2021/12/04 02:39:45;;;;;;;12.43;8.07;;;1.40;99.90;;;;;;5032631;28;20052;-71
2021/12/04 02:42:49;;;;;;;15.85;9.02;;;1.50;99.90;;;;;;5032989;28;20096;-71
2021/12/04 02:45:53;;;;;;;14.25;9.48;;;1.60;99.90;;;;;;5031912;28;20036;-71
2021/12/04 02:48:58;;;;;;;16.00;9.00;;;1.60;99.90;;;;;;5031696;28;20048;-71
2021/12/04 02:52:12;;;;;;;14.27;8.40;;;1.60;99.90;;;;;;5032801;28;20060;-71
2021/12/04 02:55:17;;;;;;;11.40;7.45;;;1.70;99.90;;;;;;5029703;28;20036;-71
2021/12/04 02:58:21;;;;;;;12.25;6.25;;;1.70;99.90;;;;;;5033141;28;20049;-71
2021/12/04 03:01:25;;;;;;;12.23;6.88;;;1.80;99.90;;;;;;5032533;28;20040;-71
2021/12/04 03:04:31;;;;;;;10.73;7.40;;;1.90;99.90;;;;;;5031605;28;20053;-70
2021/12/04 03:07:35;;;;;;;10.75;7.30;;;1.80;99.90;;;;;;5029981;28;20048;-71
2021/12/04 03:10:39;;;;;;;14.20;8.60;;;1.80;99.90;;;;;;5032695;28;20045;-71
2021/12/04 03:13:43;;;;;;;13.30;8.98;;;1.80;99.90;;;;;;5029235;28;20056;-71
2021/12/04 03:16:48;;;;;;;13.95;8.50;;;1.90;99.90;;;;;;5030661;28;20052;-71
2021/12/04 03:19:53;;;;;;;12.77;7.63;;;1.90;99.90;;;;;;5032010;28;20527;-71
2021/12/04 03:23:02;;;;;;;14.77;8.70;;;1.90;99.90;;;;;;5032715;28;20053;-71
2021/12/04 03:26:09;;;;;;;20.15;10.05;;;1.90;99.90;;;;;;5033204;28;20032;-71
2021/12/04 03:29:17;;;;;;;15.57;8.90;;;1.90;99.90;;;;;;5032551;28;20037;-71
2021/12/04 03:42:16;;;;;;;;;;;1.80;99.90;;;;;;5032967;28;20045;-71
2021/12/04 03:45:20;;;;;;;13.15;8.15;;;1.90;99.90;;;;;;5032062;28;19916;-70
2021/12/04 03:51:35;;;;;;;11.82;7.85;;;1.80;99.90;;;;;;5032425;28;20056;-71
2021/12/04 03:54:39;;;;;;;12.05;7.20;;;1.80;99.90;;;;;;5031793;28;20048;-71
2021/12/04 03:57:46;;;;;;;17.77;6.85;;;1.80;99.90;;;;;;5032238;28;20057;-71
2021/12/04 04:00:50;;;;;;;10.80;6.55;;;1.80;99.90;;;;;;5030024;28;20052;-70
2021/12/04 04:03:55;;;;;;;11.40;7.38;;;1.80;99.90;;;;;;5029909;28;20052;-70
2021/12/04 04:06:59;;;;;;;28.17;8.80;;;1.80;99.90;;;;;;5031842;28;20052;-71
2021/12/04 04:10:07;;;;;;;13.57;8.20;;;1.70;99.90;;;;;;5031726;28;20048;-71
2021/12/04 04:13:12;;;;;;;11.73;7.28;;;1.70;99.90;;;;;;5029758;28;20048;-71
2021/12/04 04:16:16;;;;;;;12.43;7.88;;;1.60;99.90;;;;;;5031469;28;20056;-71
2021/12/04 04:19:22;;;;;;;13.05;7.93;;;1.50;99.90;;;;;;5025282;28;20040;-70
2021/12/04 04:22:26;;;;;;;28.45;11.55;;;1.00;99.90;;;;;;5030365;28;20048;-70
2021/12/04 04:25:30;;;;;;;43.30;12.82;;;0.90;99.90;;;;;;5026972;28;20041;-70
2021/12/04 04:28:36;;;;;;;31.25;12.80;;;0.70;99.90;;;;;;5027279;28;20385;-70
2021/12/04 04:31:48;;;;;;;35.00;13.50;;;0.70;99.90;;;;;;5029661;28;20384;-71
2021/12/04 04:34:54;;;;;;;37.45;12.73;;;0.60;99.90;;;;;;5029090;28;20428;-71
2021/12/04 05:01:28;;;;;;;13.82;9.27;;;0.50;99.90;;;;;;5026189;28;19921;-70
2021/12/04 05:11:35;;;;;;;20.60;11.52;;;0.40;99.90;;;;;;5030438;28;20040;-71
2021/12/04 05:14:41;;;;;;;21.25;11.82;;;0.40;99.90;;;;;;5026673;28;20040;-70
2021/12/04 05:21:04;;;;;;;14.55;9.02;;;0.50;99.90;;;;;;5028655;28;20128;-70
2021/12/04 05:24:09;;;;;;;16.05;9.48;;;0.60;99.90;;;;;;5030375;28;20033;-71
2021/12/04 05:27:14;;;;;;;19.35;11.18;;;0.60;99.90;;;;;;5030094;28;20486;-70
2021/12/04 05:30:20;;;;;;;20.23;11.98;;;0.60;99.90;;;;;;5027181;28;20049;-70
2021/12/04 05:33:25;;;;;;;16.63;10.63;;;0.60;99.90;;;;;;5030532;28;20400;-70
2021/12/04 05:36:29;;;;;;;19.50;10.15;;;0.50;99.90;;;;;;5025740;28;20065;-70
2021/12/04 05:39:34;;;;;;;16.27;9.85;;;0.60;99.90;;;;;;5029462;28;20408;-70
2021/12/04 05:42:38;;;;;;;15.57;10.05;;;0.70;99.90;;;;;;5027005;28;20053;-71
2021/12/04 05:45:49;;;;;;;16.83;10.57;;;0.70;99.90;;;;;;5026756;28;20771;-71
2021/12/04 05:49:09;;;;;;;15.50;9.27;;;0.80;99.90;;;;;;5028481;28;20052;-71
2021/12/04 05:55:19;;;;;;;15.75;9.25;;;0.80;99.90;;;;;;5030302;28;20040;-71
2021/12/04 05:58:30;;;;;;;13.07;8.23;;;0.90;99.90;;;;;;5029968;28;20396;-71
2021/12/04 06:01:34;;;;;;;11.68;7.70;;;0.90;99.90;;;;;;5029193;28;20404;-71
2021/12/04 06:04:39;;;;;;;20.85;14.00;;;0.90;99.90;;;;;;5033737;28;20487;-71
2021/12/04 06:07:44;;;;;;;22.75;12.38;;;0.90;99.90;;;;;;5030975;28;20052;-71
2021/12/04 06:10:49;;;;;;;17.52;12.13;;;0.90;99.90;;;;;;5034059;28;20052;-71
2021/12/04 06:13:53;;;;;;;20.65;13.50;;;0.90;99.90;;;;;;5033780;28;20420;-70
2021/12/04 06:16:57;;;;;;;21.83;14.25;;;0.80;99.90;;;;;;5033754;28;20048;-70
2021/12/04 06:23:24;;;;;;;22.80;14.57;;;0.70;99.90;;;;;;5034080;28;20036;-70
2021/12/04 06:26:29;;;;;;;29.60;15.82;;;0.80;99.90;;;;;;5032117;28;20044;-71
2021/12/04 06:29:33;;;;;;;22.73;14.02;;;0.70;99.90;;;;;;5029271;28;20112;-71
2021/12/04 06:32:38;;;;;;;20.30;13.90;;;0.70;99.90;;;;;;5031998;28;20041;-71
2021/12/04 06:35:42;;;;;;;19.25;12.95;;;0.70;99.90;;;;;;5029883;28;20048;-71
2021/12/04 06:38:46;;;;;;;23.92;13.55;;;0.80;99.90;;;;;;5030655;28;20056;-71
2021/12/04 06:41:51;;;;;;;19.00;12.32;;;0.80;99.90;;;;;;5033566;28;20052;-70
2021/12/04 06:44:56;;;;;;;18.98;11.45;;;0.80;99.90;;;;;;5032757;28;20052;-70
2021/12/04 06:48:06;;;;;;;18.17;11.57;;;0.80;99.90;;;;;;5033116;28;20579;-71
2021/12/04 06:54:21;;;;;;;18.88;11.15;;;0.90;99.90;;;;;;5032944;28;20040;-70
2021/12/04 06:57:28;;;;;;;19.75;10.77;;;1.00;99.90;;;;;;5031960;28;20056;-70
2021/12/04 07:00:34;;;;;;;17.83;10.98;;;1.10;99.90;;;;;;5030292;28;20057;-70
2021/12/04 07:03:39;;;;;;;20.55;10.45;;;1.10;99.90;;;;;;5032502;28;20052;-71
2021/12/04 07:06:45;;;;;;;16.48;9.48;;;1.20;99.90;;;;;;5029041;28;20045;-71
2021/12/04 07:09:49;;;;;;;13.25;9.05;;;1.40;99.90;;;;;;5030446;28;20121;-71
2021/12/04 07:12:53;;;;;;;12.75;7.88;;;1.60;99.90;;;;;;5030086;28;20377;-70
2021/12/04 07:16:05;;;;;;;11.95;8.23;;;1.70;99.90;;;;;;5032432;28;20048;-70
2021/12/04 07:19:09;;;;;;;13.90;7.50;;;1.90;99.90;;;;;;5029471;28;20048;-71
2021/12/04 07:22:13;;;;;;;12.15;8.25;;;2.40;99.90;;;;;;5027175;28;20037;-71
2021/12/04 07:25:17;;;;;;;17.17;9.07;;;2.60;99.90;;;;;;5032425;28;20048;-70
2021/12/04 07:28:21;;;;;;;30.80;9.65;;;2.10;99.90;;;;;;5031261;28;20048;-70
2021/12/04 07:31:26;;;;;;;13.70;8.48;;;1.90;99.90;;;;;;5036467;28;20044;-70
2021/12/04 07:34:30;;;;;;;13.52;8.85;;;2.00;99.90;;;;;;5031290;28;20049;-71
2021/12/04 07:37:34;;;;;;;14.90;8.38;;;2.10;99.90;;;;;;5032436;28;20049;-71
2021/12/04 07:40:38;;;;;;;12.43;8.73;;;2.30;99.90;;;;;;5028798;28;20048;-70
2021/12/04 07:43:43;;;;;;;14.07;8.32;;;2.30;99.90;;;;;;5031946;28;20045;-70
2021/12/04 07:46:47;;;;;;;17.35;9.00;;;2.30;99.90;;;;;;5031733;28;20060;-70
2021/12/04 07:49:51;;;;;;;16.45;9.10;;;2.40;99.90;;;;;;5032413;28;20048;-71
2021/12/04 07:52:56;;;;;;;20.27;10.95;;;2.50;99.90;;;;;;5031636;28;20052;-71
2021/12/04 07:56:00;;;;;;;16.77;9.10;;;2.70;99.90;;;;;;5030759;28;20048;-72
2021/12/04 07:59:05;;;;;;;38.30;20.65;;;4.30;99.90;;;;;;5031886;28;20052;-71
2021/12/04 08:02:09;;;;;;;8.80;6.60;;;6.60;99.90;;;;;;5029626;28;20154;-72
2021/12/04 08:05:13;;;;;;;8.43;5.47;;;8.90;99.90;;;;;;5024370;28;20033;-72
2021/12/04 08:08:17;;;;;;;12.57;7.60;;;9.30;99.90;;;;;;5031996;28;20041;-72
2021/12/04 08:11:21;;;;;;;7.38;5.38;;;8.00;99.90;;;;;;5031993;28;20044;-71
2021/12/04 08:14:25;;;;;;;8.55;5.63;;;6.90;99.90;;;;;;5030526;28;20033;-71
2021/12/04 08:17:29;;;;;;;13.38;9.27;;;6.10;99.90;;;;;;5031304;28;20053;-71
2021/12/04 08:20:33;;;;;;;9.93;7.32;;;4.30;99.90;;;;;;5027440;28;20052;-71
2021/12/04 08:23:37;;;;;;;10.63;7.45;;;3.50;99.90;;;;;;5027146;28;20038;-71
2021/12/04 08:26:44;;;;;;;11.40;7.85;;;3.10;99.90;;;;;;5031512;28;20504;-71
2021/12/04 08:29:48;;;;;;;13.88;9.35;;;2.60;99.90;;;;;;5030764;28;20103;-70
2021/12/04 08:32:54;;;;;;;15.55;9.70;;;2.40;99.90;;;;;;5031515;28;20556;-71
2021/12/04 08:35:58;;;;;;;18.23;10.40;;;2.10;99.90;;;;;;5031445;28;20057;-71
2021/12/04 08:39:05;;;;;;;20.65;11.55;;;1.90;99.90;;;;;;5030777;28;20550;-71
2021/12/04 08:42:09;;;;;;;15.57;9.32;;;1.90;99.90;;;;;;5031076;28;20041;-71
2021/12/04 08:45:15;;;;;;;16.90;10.55;;;2.00;99.90;;;;;;5031347;28;20480;-71
2021/12/04 08:48:19;;;;;;;18.67;11.27;;;2.00;99.90;;;;;;5031151;28;20036;-71
2021/12/04 08:51:23;;;;;;;23.83;13.25;;;1.80;99.90;;;;;;5031471;28;20060;-71
2021/12/04 08:54:30;;;;;;;23.67;12.52;;;1.80;99.90;;;;;;5031027;28;20056;-71
2021/12/04 08:57:34;;;;;;;20.63;13.18;;;1.70;99.90;;;;;;5032072;28;20496;-71
2021/12/04 09:00:52;;;;;;;24.20;13.60;;;1.60;99.90;;;;;;5031214;28;20041;-71
2021/12/04 09:04:07;;;;;;;25.70;13.43;;;1.50;99.90;;;;;;5030998;28;20032;-71
2021/12/04 09:07:11;;;;;;;22.95;12.80;;;1.60;99.90;;;;;;5031162;28;20376;-71
2021/12/04 09:10:16;;;;;;;24.08;11.50;;;1.70;99.90;;;;;;5031264;28;20048;-71
2021/12/04 09:13:22;;;;;;;21.80;13.95;;;1.70;99.90;;;;;;5030777;28;20056;-70
2021/12/04 09:16:26;;;;;;;25.15;13.82;;;1.60;99.90;;;;;;5030778;28;20045;-71
2021/12/04 09:19:30;;;;;;;20.55;12.50;;;1.60;99.90;;;;;;5031197;28;20040;-71
2021/12/04 09:22:36;;;;;;;30.30;16.00;;;1.80;99.90;;;;;;5030912;28;20048;-71
2021/12/04 09:25:44;;;;;;;29.00;15.63;;;2.00;99.90;;;;;;5030553;28;20499;-71
2021/12/04 09:29:07;;;;;;;34.42;18.27;;;2.10;99.90;;;;;;5031275;28;20052;-71
2021/12/04 10:32:49;;;;;;;25.23;15.68;;;2.70;99.90;;;;;;5031558;28;20052;-71
2021/12/04 10:35:53;;;;;;;33.38;17.50;;;2.80;99.90;;;;;;5034035;28;20048;-70
2021/12/04 10:38:58;;;;;;;28.83;17.73;;;2.80;99.90;;;;;;5033106;28;20052;-70
2021/12/04 10:42:07;;;;;;;30.65;18.42;;;2.80;99.90;;;;;;5032735;28;20534;-71
2021/12/04 10:45:11;;;;;;;29.70;18.10;;;2.90;99.90;;;;;;5033963;28;20036;-71
2021/12/04 10:48:20;;;;;;;29.80;19.48;;;3.00;99.90;;;;;;5032628;28;20049;-71
2021/12/04 10:51:33;;;;;;;36.40;21.60;;;2.80;99.90;;;;;;5031173;28;20049;-70
2021/12/04 10:54:40;;;;;;;32.25;20.17;;;2.60;99.90;;;;;;5030624;28;20048;-71
2021/12/04 11:01:21;;;;;;;33.40;19.17;;;3.00;99.90;;;;;;5033256;28;20499;-71
2021/12/04 11:04:51;;;;;;;31.35;18.30;;;3.30;99.90;;;;;;5033352;28;20048;-71
2021/12/04 11:44:32;;;;;;;23.65;14.25;;;4.00;99.90;;;;;;5031095;28;20053;-70
2021/12/04 11:47:42;;;;;;;21.40;12.02;;;4.30;99.90;;;;;;5030652;28;20530;-71
2021/12/04 11:50:52;;;;;;;16.02;9.98;;;4.60;99.90;;;;;;5031027;28;20048;-71
2021/12/04 11:53:56;;;;;;;13.23;8.48;;;5.10;99.90;;;;;;5031858;28;20053;-71
2021/12/04 11:57:03;;;;;;;20.40;10.57;;;5.60;99.90;;;;;;5032147;28;20048;-71
2021/12/04 12:00:17;;;;;;;9.93;5.03;;;5.60;99.90;;;;;;5031254;28;20044;-71
2021/12/04 12:03:26;;;;;;;19.45;10.82;;;5.90;99.90;;;;;;5027707;28;20049;-70
2021/12/04 12:06:37;;;;;;;15.73;9.02;;;5.80;99.90;;;;;;5031040;28;20041;-71
2021/12/04 12:09:42;;;;;;;12.88;8.85;;;5.70;99.90;;;;;;5029595;28;20044;-71
2021/12/04 12:12:48;;;;;;;14.23;9.07;;;5.80;99.90;;;;;;5031153;28;20048;-71
2021/12/04 12:16:02;;;;;;;15.93;9.30;;;5.90;99.90;;;;;;5031068;28;20044;-71
2021/12/04 12:19:13;;;;;;;18.73;11.75;;;5.90;99.90;;;;;;5031637;28;20052;-71
2021/12/04 12:22:44;;;;;;;16.63;11.02;;;5.80;99.90;;;;;;5031654;28;20052;-71
2021/12/04 12:36:19;;;;;;;29.17;18.65;;;5.00;99.90;;;;;;5030584;28;20044;-71
2021/12/04 12:39:22;;;;;;;25.88;16.85;;;4.90;99.90;;;;;;5028423;28;20072;-71
2021/12/04 12:42:33;;;;;;;29.98;20.00;;;5.00;99.90;;;;;;5030666;28;20044;-71
2021/12/04 12:45:37;;;;;;;33.13;19.80;;;5.00;99.90;;;;;;5027388;28;20504;-72
2021/12/04 12:48:52;;;;;;;23.25;13.45;;;5.00;99.90;;;;;;5026981;28;20385;-72
2021/12/04 12:52:02;;;;;;;15.57;8.23;;;5.10;99.90;;;;;;5028958;28;20060;-72
2021/12/04 12:55:10;;;;;;;7.38;4.40;;;5.40;99.90;;;;;;5031636;28;20381;-71
2021/12/04 12:58:30;;;;;;;4.63;2.70;;;5.80;99.90;;;;;;5022607;28;20033;-71
2021/12/04 13:12:18;;;;;;;18.67;11.50;;;5.90;99.90;;;;;;5024423;28;20159;-72
2021/12/04 13:15:36;;;;;;;10.32;5.10;;;5.80;99.90;;;;;;5029668;28;20041;-71
2021/12/04 13:18:40;;;;;;;6.93;3.40;;;6.00;99.90;;;;;;5026137;28;20048;-72
2021/12/04 13:21:48;;;;;;;6.65;4.15;;;6.30;99.90;;;;;;5028791;28;20037;-72
2021/12/04 13:24:56;;;;;;;6.25;4.13;;;6.50;99.90;;;;;;5030911;28;20057;-72
2021/12/04 13:31:05;;;;;;;13.32;8.35;;;6.50;99.90;;;;;;5030398;28;20038;-72
2021/12/04 13:34:12;;;;;;;16.05;10.15;;;6.30;99.90;;;;;;5030303;28;20049;-71
2021/12/04 13:37:23;;;;;;;19.98;11.38;;;6.20;99.90;;;;;;5029510;28;20471;-72
2021/12/04 13:40:28;;;;;;;14.07;6.75;;;6.10;99.90;;;;;;5027897;28;20036;-71
2021/12/04 13:43:32;;;;;;;7.30;3.75;;;6.20;99.90;;;;;;5026032;28;20052;-71
2021/12/04 13:46:44;;;;;;;4.35;2.38;;;6.30;99.90;;;;;;5029293;28;20041;-72
2021/12/04 13:49:55;;;;;;;3.88;2.10;;;6.40;99.90;;;;;;5027191;28;20057;-72
2021/12/04 13:53:03;;;;;;;4.00;1.85;;;6.60;99.90;;;;;;5030100;28;20033;-72
2021/12/04 13:56:17;;;;;;;5.40;2.15;;;6.70;99.90;;;;;;5030405;28;20030;-73
2021/12/04 13:59:24;;;;;;;14.80;7.10;;;6.70;99.90;;;;;;5027925;28;20354;-72
2021/12/04 14:02:30;;;;;;;20.75;11.25;;;6.60;99.90;;;;;;5030413;28;20041;-72
2021/12/04 14:05:34;;;;;;;21.02;10.55;;;6.20;99.90;;;;;;5025650;28;20040;-72
2021/12/04 14:08:39;;;;;;;24.50;11.82;;;5.90;99.90;;;;;;5025545;28;20048;-72
2021/12/04 14:11:45;;;;;;;25.75;12.80;;;5.80;99.90;;;;;;5027089;28;20044;-72
2021/12/04 14:14:49;;;;;;;21.05;13.93;;;5.70;99.90;;;;;;5030817;28;20048;-72
2021/12/04 14:18:22;;;;;;;30.38;18.55;;;5.60;99.90;;;;;;5029848;28;20388;-72
2021/12/04 14:21:26;;;;;;;;;;;5.50;99.90;;;;;;5027505;28;20064;-73
2021/12/04 14:24:44;;;;;;;42.35;24.90;;;5.30;99.90;;;;;;5029186;28;19916;-72
2021/12/04 14:27:49;;;;;;;39.58;25.17;;;5.10;99.90;;;;;;5031574;28;20050;-72
2021/12/04 14:30:53;;;;;;;50.45;33.10;;;5.10;99.90;;;;;;5031477;28;20052;-73
2021/12/04 14:33:57;;;;;;;34.97;21.40;;;5.20;99.90;;;;;;5032480;28;20499;-72
2021/12/04 14:37:07;;;;;;;29.73;19.67;;;5.20;99.90;;;;;;5034038;28;20044;-72
2021/12/04 14:40:15;;;;;;;27.58;17.85;;;5.20;99.90;;;;;;5030370;28;20052;-73
2021/12/04 14:43:23;;;;;;;32.88;18.98;;;5.30;99.90;;;;;;5032997;28;20041;-72
2021/12/04 14:46:29;;;;;;;25.20;14.65;;;5.40;99.90;;;;;;5028328;28;20041;-72
2021/12/04 14:49:33;;;;;;;11.70;6.70;;;5.40;99.90;;;;;;5032503;28;20052;-73
2021/12/04 14:52:38;;;;;;;10.88;4.30;;;5.60;99.90;;;;;;5028967;28;20048;-72
2021/12/04 14:55:47;;;;;;;17.52;9.55;;;5.90;99.90;;;;;;5033095;28;20052;-73
2021/12/04 14:58:51;;;;;;;8.68;4.53;;;5.90;99.90;;;;;;5030394;28;20060;-73
2021/12/04 15:01:55;;;;;;;7.82;3.30;;;6.10;99.90;;;;;;5032747;28;20049;-73
2021/12/04 15:04:59;;;;;;;10.40;4.05;;;6.30;99.90;;;;;;5032968;28;20037;-73
2021/12/04 15:08:09;;;;;;;6.47;3.20;;;6.40;99.90;;;;;;5033058;28;20903;-73
2021/12/04 15:11:21;;;;;;;10.60;5.32;;;6.60;99.90;;;;;;5032533;28;20041;-73
2021/12/04 15:14:32;;;;;;;6.38;3.63;;;6.60;99.90;;;;;;5032593;28;20036;-72
2021/12/04 15:17:41;;;;;;;10.00;5.25;;;6.80;99.90;;;;;;5031128;28;20353;-72
2021/12/04 15:20:57;;;;;;;8.27;3.47;;;6.90;99.90;;;;;;5030707;28;20202;-71
2021/12/04 15:24:01;;;;;;;12.25;5.50;;;7.00;99.90;;;;;;5031679;28;20049;-72
2021/12/04 15:27:26;;;;;;;7.85;3.08;;;7.00;99.90;;;;;;5032015;28;20061;-72
2021/12/04 15:30:31;;;;;;;5.45;3.20;;;7.00;99.90;;;;;;5027964;28;20029;-72
2021/12/04 15:33:46;;;;;;;5.13;3.13;;;7.00;99.90;;;;;;5029941;28;20250;-72
2021/12/04 15:36:51;;;;;;;8.10;3.28;;;6.90;99.90;;;;;;5028951;28;20041;-72
2021/12/04 15:39:55;;;;;;;10.65;3.20;;;6.90;99.90;;;;;;5037971;28;20045;-72
2021/12/04 15:43:18;;;;;;;9.05;3.60;;;6.90;99.90;;;;;;5033105;28;20738;-72
2021/12/04 15:46:33;;;;;;;12.70;4.72;;;6.90;99.90;;;;;;5035454;28;20044;-72
2021/12/04 15:53:17;;;;;;;12.23;5.68;;;7.00;99.90;;;;;;5013914;28;20045;-73
2021/12/04 15:56:44;;;;;;;5.45;2.60;;;7.10;99.90;;;;;;5030608;28;20037;-72
2021/12/04 15:59:52;;;;;;;12.93;5.00;;;7.20;99.90;;;;;;5028611;28;20053;-73
2021/12/04 16:03:01;;;;;;;9.20;4.82;;;7.30;99.90;;;;;;5031444;28;20048;-72
2021/12/04 16:06:10;;;;;;;5.22;3.28;;;7.40;99.90;;;;;;5032021;28;20041;-73
2021/12/04 16:09:31;;;;;;;13.02;4.30;;;7.40;99.90;;;;;;5024735;28;20361;-72
2021/12/04 16:12:37;;;;;;;11.43;5.53;;;7.40;99.90;;;;;;5027819;28;20048;-73
2021/12/04 16:15:42;;;;;;;9.52;4.25;;;7.30;99.90;;;;;;5028511;28;20503;-72
2021/12/04 16:18:51;;;;;;;11.95;7.38;;;7.30;99.90;;;;;;5027699;28;20041;-73
2021/12/04 16:21:59;;;;;;;8.73;4.47;;;7.40;99.90;;;;;;5031371;28;20052;-73
2021/12/04 16:25:13;;;;;;;8.82;6.53;;;7.40;99.90;;;;;;5031184;28;20037;-73
2021/12/04 16:28:42;;;;;;;11.68;4.55;;;7.40;99.90;;;;;;5027831;28;20480;-73
2021/12/04 16:35:43;;;;;;;8.27;5.10;;;7.50;99.90;;;;;;5030390;28;20034;-73
2021/12/04 16:38:43;;;;;;;8.88;4.40;;;7.60;99.90;;;;;;5028800;28;20476;-73
2021/12/04 16:41:53;;;;;;;8.77;2.85;;;7.60;99.90;;;;;;5028597;28;20038;-73
2021/12/04 16:44:57;;;;;;;18.20;11.00;;;7.80;99.90;;;;;;5030709;28;20037;-73
2021/12/04 16:48:07;;;;;;;12.40;2.80;;;7.80;99.90;;;;;;5030580;28;20052;-73
2021/12/04 16:55:07;;;;;;;4.85;2.08;;;8.00;99.90;;;;;;5029570;28;20045;-72
2021/12/04 17:00:57;;;;;;;6.95;2.33;;;8.20;99.90;;;;;;5029656;28;20045;-73
2021/12/04 17:04:01;;;;;;;7.03;2.78;;;8.30;99.90;;;;;;5030694;28;20052;-73
2021/12/04 17:07:05;;;;;;;8.60;2.65;;;8.20;99.90;;;;;;5030687;28;20033;-73
2021/12/04 17:10:10;;;;;;;7.45;1.73;;;8.20;99.90;;;;;;5030898;28;20034;-73
2021/12/04 17:13:15;;;;;;;5.63;2.70;;;8.20;99.90;;;;;;5028373;28;20476;-73
2021/12/04 17:16:27;;;;;;;7.40;2.95;;;8.10;99.90;;;;;;5028606;28;20034;-73
2021/12/04 17:19:31;;;;;;;10.10;2.83;;;8.10;99.90;;;;;;5030326;28;20045;-73
2021/12/04 17:22:35;;;;;;;17.25;5.43;;;8.10;99.90;;;;;;5026550;28;20053;-73
2021/12/04 17:25:41;;;;;;;7.63;4.25;;;7.90;99.90;;;;;;5030377;28;20052;-73
2021/12/04 17:28:45;;;;;;;8.75;3.38;;;8.00;99.90;;;;;;5027185;28;20373;-73
2021/12/04 17:31:50;;;;;;;6.32;3.00;;;8.00;99.90;;;;;;5031366;28;20037;-74
2021/12/04 17:34:55;;;;;;;10.10;4.68;;;8.00;99.90;;;;;;5030119;28;20034;-73
2021/12/04 17:38:00;;;;;;;8.95;5.30;;;8.00;99.90;;;;;;5030247;28;20044;-73
2021/12/04 17:41:04;;;;;;;8.90;2.80;;;8.10;99.90;;;;;;5031253;28;20650;-73
2021/12/04 17:44:15;;;;;;;6.78;2.70;;;8.10;99.90;;;;;;5030031;28;20029;-74
2021/12/04 17:47:25;;;;;;;12.38;2.90;;;8.10;99.90;;;;;;5023156;28;20030;-74
2021/12/04 17:50:30;;;;;;;9.77;4.93;;;8.20;99.90;;;;;;5030496;28;20056;-74
2021/12/04 17:53:38;;;;;;;8.85;3.97;;;8.20;99.90;;;;;;5028868;28;20038;-75
2021/12/04 17:56:46;;;;;;;10.38;4.70;;;8.20;99.90;;;;;;5026808;28;20053;-74
2021/12/04 17:59:51;;;;;;;6.70;3.83;;;8.20;99.90;;;;;;5030569;28;20037;-73
2021/12/04 18:02:55;;;;;;;10.43;5.18;;;8.20;99.90;;;;;;5034520;28;20041;-74
2021/12/04 18:06:05;;;;;;;12.68;6.93;;;8.20;99.90;;;;;;5033878;28;20040;-74
2021/12/04 18:09:13;;;;;;;11.73;5.28;;;8.30;99.90;;;;;;5028975;28;20068;-74
2021/12/04 18:12:32;;;;;;;19.95;12.68;;;8.30;99.90;;;;;;5034711;28;20037;-74
2021/12/04 18:15:42;;;;;;;49.50;26.30;;;8.10;99.90;;;;;;5036534;28;20400;-73
2021/12/04 18:18:46;;;;;;;21.75;11.98;;;8.00;99.90;;;;;;5029085;28;20054;-74
2021/12/04 18:21:52;;;;;;;12.77;6.88;;;8.00;99.90;;;;;;5032275;28;20052;-74
2021/12/04 18:24:56;;;;;;;11.40;3.90;;;8.10;99.90;;;;;;5033919;28;20045;-74
2021/12/04 18:28:02;;;;;;;17.05;8.35;;;8.20;99.90;;;;;;5032359;28;20048;-74
2021/12/04 18:31:06;;;;;;;8.57;4.38;;;8.30;99.90;;;;;;5033392;28;20045;-74
2021/12/04 18:34:12;;;;;;;11.30;5.10;;;8.30;99.90;;;;;;5034214;28;20038;-74
2021/12/04 18:37:16;;;;;;;14.57;7.85;;;8.40;99.90;;;;;;5033682;28;20060;-73
2021/12/04 18:40:20;;;;;;;17.75;9.40;;;8.20;99.90;;;;;;5032770;28;20040;-74
2021/12/04 18:43:26;;;;;;;8.65;5.47;;;8.20;99.90;;;;;;5030217;28;20040;-74
2021/12/04 18:46:31;;;;;;;10.38;5.20;;;8.30;99.90;;;;;;5032988;28;20045;-74
2021/12/04 18:49:36;;;;;;;11.52;6.18;;;8.40;99.90;;;;;;5033248;28;20052;-74
2021/12/04 18:52:41;;;;;;;15.50;6.05;;;8.40;99.90;;;;;;5033360;28;20052;-73
2021/12/04 18:55:45;;;;;;;20.02;9.60;;;8.40;99.90;;;;;;5031635;28;20056;-73
2021/12/04 18:58:50;;;;;;;14.65;8.98;;;8.40;99.90;;;;;;5031274;28;20040;-73
2021/12/04 19:01:58;;;;;;;25.55;14.27;;;8.40;99.90;;;;;;5033979;28;20052;-73
2021/12/04 19:05:04;;;;;;;16.73;8.73;;;8.40;99.90;;;;;;5032763;28;20052;-73
2021/12/04 19:08:10;;;;;;;20.98;10.70;;;8.30;99.90;;;;;;5032036;28;20037;-73
2021/12/04 19:11:22;;;;;;;79.97;34.85;;;8.30;99.90;;;;;;5032072;28;20109;-74
2021/12/04 19:14:26;;;;;;;59.33;30.40;;;8.40;99.90;;;;;;5032123;28;20040;-73
2021/12/04 19:17:32;;;;;;;13.18;8.05;;;8.40;99.90;;;;;;5027710;28;20275;-73
2021/12/04 19:20:41;;;;;;;17.55;8.50;;;8.40;99.90;;;;;;5028917;28;20060;-73
2021/12/04 19:23:49;;;;;;;18.35;8.50;;;8.40;99.90;;;;;;5029173;28;20044;-73
2021/12/04 19:26:53;;;;;;;11.98;7.35;;;8.50;99.90;;;;;;5030412;28;20499;-74
2021/12/04 19:29:58;;;;;;;10.90;6.07;;;8.50;99.90;;;;;;5032271;28;20044;-73
2021/12/04 19:33:17;;;;;;;38.28;24.48;;;8.50;99.90;;;;;;5034692;28;20051;-73
2021/12/04 19:56:36;;;;;;;6.78;3.05;;;8.90;99.90;;;;;;5029407;28;20515;-73
2021/12/04 19:59:41;;;;;;;7.75;2.63;;;8.90;99.90;;;;;;5028903;28;21652;-73
2021/12/04 20:03:05;;;;;;;74.65;31.13;;;9.00;99.90;;;;;;5028518;28;20476;-73